Time;durP1;ratioP1;P1;durP2;ratioP2;P2;SDS_P1;SDS_P2;PMS_P1;PMS_P2;Temp;Humidity;BMP_temperature;BMP_pressure;BME280_temperature;BME280_humidity;BME280_pressure;Samples;Min_cycle;Max_cycle;Signal;HPM_P1;HPM_P2
2021/08/10 00:01:30;;;;;;;;;;;;;;;;;;10280187;28;19921;-60
2021/08/10 00:06:27;;;;;;;;;;;;;;;;;;10276449;28;19924;-64
2021/08/10 00:11:24;;;;;;;;;;;;;;;;;;10279328;28;19917;-63
2021/08/10 00:16:21;;;;;;;;;;;;;;;;;;10283679;28;19952;-64
2021/08/10 00:21:19;;;;;;;;;;;;;;;;;;10284346;28;20410;-62
2021/08/10 00:26:16;;;;;;;;;;;;;;;;;;10284325;28;19920;-63
2021/08/10 00:31:13;;;;;;;;;;;;;;;;;;10280058;28;19924;-62
2021/08/10 00:36:10;;;;;;;;;;;;;;;;;;10282054;28;19909;-62
2021/08/10 00:41:08;;;;;;;;;;;;;;;;;;10293879;28;20559;-61
2021/08/10 00:46:07;;;;;;;;;;;;;;;;;;10284327;28;19992;-61
2021/08/10 00:51:05;;;;;;;;;;;;;;;;;;10287072;28;20489;-61
2021/08/10 00:56:03;;;;;;;;;;;;;;;;;;10284114;28;19976;-62
2021/08/10 01:01:01;;;;;;;;;;;;;;;;;;10282247;28;20457;-61
2021/08/10 01:05:59;;;;;;;;;;;;;;;;;;10280488;28;19918;-60
2021/08/10 01:10:56;;;;;;;;;;;;;;;;;;10292152;28;19949;-63
2021/08/10 01:15:54;;;;;;;;;;;;;;;;;;10281825;28;19918;-62
2021/08/10 01:20:51;;;;;;;;;;;;;;;;;;10281470;28;20020;-62
2021/08/10 01:25:49;;;;;;;;;;;;;;;;;;10288874;28;19987;-62
2021/08/10 01:30:48;;;;;;;;;;;;;;;;;;10287429;28;19917;-61
2021/08/10 01:35:45;;;;;;;;;;;;;;;;;;10292267;28;19924;-63
2021/08/10 01:40:42;;;;;;;;;;;;;;;;;;10285281;28;19921;-62
2021/08/10 01:45:40;;;;;;;;;;;;;;;;;;10291301;28;20034;-63
2021/08/10 01:50:41;;;;;;;;;;;;;;;;;;10298053;28;19917;-64
2021/08/10 01:55:44;;;;;;;;;;;;;;;;;;10296210;28;19961;-64
2021/08/10 02:00:49;;;;;;;;;;;;;;;;;;10301885;28;19932;-63
2021/08/10 02:05:46;;;;;;;;;;;;;;;;;;10303974;28;19927;-62
2021/08/10 02:10:50;;;;;;;;;;;;;;;;;;10303863;28;19964;-63
2021/08/10 02:15:47;;;;;;;;;;;;;;;;;;10302742;28;20022;-65
2021/08/10 02:20:44;;;;;;;;;;;;;;;;;;10303187;28;19964;-65
2021/08/10 02:25:42;;;;;;;;;;;;;;;;;;10295404;28;19928;-64
2021/08/10 02:30:42;;;;;;;;;;;;;;;;;;10317954;28;20077;-63
2021/08/10 02:35:40;;;;;;;;;;;;;;;;;;10285211;28;19917;-65
2021/08/10 02:40:37;;;;;;;;;;;;;;;;;;10322634;28;19928;-62
2021/08/10 02:45:34;;;;;;;;;;;;;;;;;;10327697;28;19925;-64
2021/08/10 02:50:32;;;;;;;;;;;;;;;;;;10319242;28;19928;-64
2021/08/10 02:55:29;;;;;;;;;;;;;;;;;;10292221;28;19925;-62
2021/08/10 03:00:27;;;;;;;;;;;;;;;;;;10298003;28;19983;-63
2021/08/10 03:05:24;;;;;;;;;;;;;;;;;;10287183;28;19968;-66
2021/08/10 03:10:22;;;;;;;;;;;;;;;;;;10292210;28;19921;-64
2021/08/10 03:15:19;;;;;;;;;;;;;;;;;;10284609;28;19924;-63
2021/08/10 03:20:16;;;;;;;;;;;;;;;;;;10318818;28;20064;-64
2021/08/10 03:25:13;;;;;;;;;;;;;;;;;;10301875;28;19925;-64
2021/08/10 03:30:11;;;;;;;;;;;;;;;;;;10299747;28;19917;-64
2021/08/10 03:35:08;;;;;;;;;;;;;;;;;;10300511;28;20354;-64
2021/08/10 03:40:06;;;;;;;;;;;;;;;;;;10300597;28;20422;-63
2021/08/10 03:45:03;;;;;;;;;;;;;;;;;;10298175;28;20387;-64
2021/08/10 03:50:00;;;;;;;;;;;;;;;;;;10299629;28;19920;-64
2021/08/10 03:55:00;;;;;;;;;;;;;;;;;;10299466;28;19932;-64
2021/08/10 03:59:57;;;;;;;;;;;;;;;;;;10302474;28;19921;-63
2021/08/10 04:04:54;;;;;;;;;;;;;;;;;;10301150;28;19917;-63
2021/08/10 04:09:53;;;;;;;;;;;;;;;;;;10301173;28;19940;-64
2021/08/10 04:14:52;;;;;;;;;;;;;;;;;;10325078;28;20346;-64
2021/08/10 04:19:56;;;;;;;;;;;;;;;;;;10308865;28;19975;-64
2021/08/10 04:24:54;;;;;;;;;;;;;;;;;;10308637;28;19965;-63
2021/08/10 04:29:51;;;;;;;;;;;;;;;;;;10308407;28;20311;-64
2021/08/10 04:34:51;;;;;;;;;;;;;;;;;;10307212;28;19917;-63
2021/08/10 04:39:48;;;;;;;;;;;;;;;;;;10308294;28;19945;-63
2021/08/10 04:44:53;;;;;;;;;;;;;;;;;;10290867;28;20019;-64
2021/08/10 04:49:50;;;;;;;;;;;;;;;;;;10289467;28;20016;-64
2021/08/10 04:54:48;;;;;;;;;;;;;;;;;;10299299;28;19929;-63
2021/08/10 04:59:45;;;;;;;;;;;;;;;;;;10280451;28;19921;-65
2021/08/10 05:04:43;;;;;;;;;;;;;;;;;;10290947;28;20379;-64
2021/08/10 05:09:43;;;;;;;;;;;;;;;;;;10275518;28;20031;-64
2021/08/10 05:14:41;;;;;;;;;;;;;;;;;;10298629;28;20395;-63
2021/08/10 05:19:38;;;;;;;;;;;;;;;;;;10287571;28;19933;-64
2021/08/10 05:24:35;;;;;;;;;;;;;;;;;;10291264;28;19928;-65
2021/08/10 05:29:36;;;;;;;;;;;;;;;;;;10291192;28;19922;-64
2021/08/10 05:34:34;;;;;;;;;;;;;;;;;;10295241;28;19917;-64
2021/08/10 05:39:33;;;;;;;;;;;;;;;;;;10297901;28;20389;-64
2021/08/10 05:44:30;;;;;;;;;;;;;;;;;;10312093;28;19921;-65
2021/08/10 05:49:30;;;;;;;;;;;;;;;;;;10301916;28;19923;-64
2021/08/10 05:54:27;;;;;;;;;;;;;;;;;;10306159;28;20437;-64
2021/08/10 05:59:24;;;;;;;;;;;;;;;;;;10341523;23;19980;-64
2021/08/10 06:04:21;;;;;;;;;;;;;;;;;;10278428;28;19921;-64
2021/08/10 06:09:19;;;;;;;;;;;;;;;;;;10282658;28;19979;-65
2021/08/10 06:14:16;;;;;;;;;;;;;;;;;;10303652;28;19921;-62
2021/08/10 06:19:13;;;;;;;;;;;;;;;;;;10281378;28;20352;-64
2021/08/10 06:24:11;;;;;;;;;;;;;;;;;;10275907;28;19948;-64
2021/08/10 06:29:10;;;;;;;;;;;;;;;;;;10276168;28;19936;-63
2021/08/10 06:34:09;;;;;;;;;;;;;;;;;;10282712;28;20387;-64
2021/08/10 06:39:06;;;;;;;;;;;;;;;;;;10302345;28;19979;-62
2021/08/10 06:44:12;;;;;;;;;;;;;;;;;;10280154;28;19921;-62
2021/08/10 06:49:22;;;;;;;;;;;;;;;;;;10268117;28;19918;-63
2021/08/10 06:54:20;;;;;;;;;;;;;;;;;;10268428;28;20428;-63
2021/08/10 06:59:22;;;;;;;;;;;;;;;;;;10290946;28;19975;-62
2021/08/10 07:04:20;;;;;;;;;;;;;;;;;;10287136;28;19928;-63
2021/08/10 07:09:17;;;;;;;;;;;;;;;;;;10277862;28;19917;-64
2021/08/10 07:14:18;;;;;;;;;;;;;;;;;;10308193;28;20301;-63
2021/08/10 07:19:17;;;;;;;;;;;;;;;;;;10297362;28;19925;-63
2021/08/10 07:24:18;;;;;;;;;;;;;;;;;;10304534;28;20441;-63
2021/08/10 07:29:16;;;;;;;;;;;;;;;;;;10290142;28;20391;-62
2021/08/10 07:34:13;;;;;;;;;;;;;;;;;;10276282;28;19920;-63
2021/08/10 07:39:12;;;;;;;;;;;;;;;;;;10256253;28;19924;-63
2021/08/10 07:44:10;;;;;;;;;;;;;;;;;;10306194;28;20020;-63
2021/08/10 07:49:12;;;;;;;;;;;;;;;;;;10270520;28;20004;-64
2021/08/10 07:54:10;;;;;;;;;;;;;;;;;;10302025;28;20264;-62
2021/08/10 07:59:07;;;;;;;;;;;;;;;;;;10279396;28;19960;-62
2021/08/10 08:04:05;;;;;;;;;;;;;;;;;;10286278;28;19956;-62
2021/08/10 08:09:02;;;;;;;;;;;;;;;;;;10285563;28;20601;-62
2021/08/10 08:13:59;;;;;;;;;;;;;;;;;;10288176;28;20313;-61
2021/08/10 08:18:57;;;;;;;;;;;;;;;;;;10298265;28;20549;-62
2021/08/10 08:23:54;;;;;;;;;;;;;;;;;;10294449;28;19922;-62
2021/08/10 08:28:52;;;;;;;;;;;;;;;;;;10278896;28;19921;-62
2021/08/10 08:33:49;;;;;;;;;;;;;;;;;;10273791;28;19924;-62
2021/08/10 08:38:47;;;;;;;;;;;;;;;;;;10277778;28;20237;-61
2021/08/10 08:43:44;;;;;;;;;;;;;;;;;;10279395;28;19948;-63
2021/08/10 08:48:42;;;;;;;;;;;;;;;;;;10304400;28;19921;-63
2021/08/10 08:53:39;;;;;;;;;;;;;;;;;;10275048;28;20216;-63
2021/08/10 08:58:36;;;;;;;;;;;;;;;;;;10258950;28;19924;-62
2021/08/10 09:03:34;;;;;;;;;;;;;;;;;;10264283;28;19921;-62
2021/08/10 09:08:32;;;;;;;;;;;;;;;;;;10277057;28;19917;-62
2021/08/10 09:13:32;;;;;;;;;;;;;;;;;;10279973;28;19921;-62
2021/08/10 09:18:29;;;;;;;;;;;;;;;;;;10273239;28;20379;-61
2021/08/10 09:23:32;;;;;;;;;;;;;;;;;;10280039;28;20004;-61
2021/08/10 09:28:29;;;;;;;;;;;;;;;;;;10266931;28;19923;-61
2021/08/10 09:33:27;;;;;;;;;;;;;;;;;;10265419;28;19926;-61
2021/08/10 09:38:24;;;;;;;;;;;;;;;;;;10293508;28;20417;-60
2021/08/10 09:43:24;;;;;;;;;;;;;;;;;;10298994;28;19956;-60
2021/08/10 09:48:22;;;;;;;;;;;;;;;;;;10299245;28;19909;-59
2021/08/10 09:53:21;;;;;;;;;;;;;;;;;;10289967;28;19913;-60
2021/08/10 09:58:18;;;;;;;;;;;;;;;;;;10302365;28;19924;-59
2021/08/10 10:03:16;;;;;;;;;;;;;;;;;;10284074;28;20283;-60
2021/08/10 10:08:14;;;;;;;;;;;;;;;;;;10276483;28;19921;-61
2021/08/10 10:13:13;;;;;;;;;;;;;;;;;;10268929;28;19909;-61
2021/08/10 10:18:10;;;;;;;;;;;;;;;;;;10259871;28;19910;-61
2021/08/10 10:23:07;;;;;;;;;;;;;;;;;;10260838;28;19924;-62
2021/08/10 10:28:05;;;;;;;;;;;;;;;;;;10260454;28;19975;-61
2021/08/10 10:33:02;;;;;;;;;;;;;;;;;;10265132;28;20389;-61
2021/08/10 10:37:59;;;;;;;;;;;;;;;;;;10270093;28;19917;-61
2021/08/10 10:42:57;;;;;;;;;;;;;;;;;;10262440;28;19922;-60
2021/08/10 10:47:54;;;;;;;;;;;;;;;;;;10269872;28;19924;-61
2021/08/10 10:52:51;;;;;;;;;;;;;;;;;;10256359;28;19921;-62
2021/08/10 10:57:50;;;;;;;;;;;;;;;;;;10273532;28;23456;-62
2021/08/10 11:02:48;;;;;;;;;;;;;;;;;;10261777;28;20024;-61
2021/08/10 11:07:46;;;;;;;;;;;;;;;;;;10267645;28;20287;-61
2021/08/10 11:12:47;;;;;;;;;;;;;;;;;;10270348;28;19957;-62
2021/08/10 11:17:44;;;;;;;;;;;;;;;;;;10273154;28;21023;-62
2021/08/10 11:22:42;;;;;;;;;;;;;;;;;;10265442;28;20012;-62
2021/08/10 11:27:40;;;;;;;;;;;;;;;;;;10279472;28;19921;-61
2021/08/10 11:32:41;;;;;;;;;;;;;;;;;;10275650;28;19917;-61
2021/08/10 11:37:38;;;;;;;;;;;;;;;;;;10277812;28;19928;-61
2021/08/10 11:42:36;;;;;;;;;;;;;;;;;;10268158;28;20075;-62
2021/08/10 11:47:33;;;;;;;;;;;;;;;;;;10272197;28;19917;-61
2021/08/10 11:52:30;;;;;;;;;;;;;;;;;;10262382;28;20035;-61
2021/08/10 11:57:27;;;;;;;;;;;;;;;;;;10270900;28;19921;-62
2021/08/10 12:02:25;;;;;;;;;;;;;;;;;;10266107;28;19921;-61
2021/08/10 12:07:22;;;;;;;;;;;;;;;;;;10275583;28;19929;-62
2021/08/10 12:12:21;;;;;;;;;;;;;;;;;;10272954;28;19933;-62
2021/08/10 12:17:19;;;;;;;;;;;;;;;;;;10271410;28;20015;-60
2021/08/10 12:22:16;;;;;;;;;;;;;;;;;;10262540;28;20008;-59
2021/08/10 12:27:13;;;;;;;;;;;;;;;;;;10279609;28;19928;-61
2021/08/10 12:32:10;;;;;;;;;;;;;;;;;;10270788;28;19929;-61
2021/08/10 12:37:08;;;;;;;;;;;;;;;;;;10261253;28;20525;-62
2021/08/10 12:42:05;;;;;;;;;;;;;;;;;;10280454;28;20366;-61
2021/08/10 12:47:02;;;;;;;;;;;;;;;;;;10283007;28;20282;-61
2021/08/10 12:51:59;;;;;;;;;;;;;;;;;;10282652;28;19918;-61
2021/08/10 12:56:57;;;;;;;;;;;;;;;;;;10276907;28;20609;-62
2021/08/10 13:01:54;;;;;;;;;;;;;;;;;;10259684;28;19928;-60
2021/08/10 13:06:51;;;;;;;;;;;;;;;;;;10257043;28;19917;-63
2021/08/10 13:11:49;;;;;;;;;;;;;;;;;;10281703;28;20074;-62
2021/08/10 13:16:47;;;;;;;;;;;;;;;;;;10273489;28;19999;-62
2021/08/10 13:21:44;;;;;;;;;;;;;;;;;;10291769;28;20019;-62
2021/08/10 13:26:41;;;;;;;;;;;;;;;;;;10279563;28;19917;-62
2021/08/10 13:31:39;;;;;;;;;;;;;;;;;;10266078;28;19937;-62
2021/08/10 13:36:36;;;;;;;;;;;;;;;;;;10270726;28;19975;-60
2021/08/10 13:41:33;;;;;;;;;;;;;;;;;;10276829;28;20443;-62
2021/08/10 13:46:30;;;;;;;;;;;;;;;;;;10275218;28;19917;-62
2021/08/10 13:51:28;;;;;;;;;;;;;;;;;;10277529;28;20399;-62
2021/08/10 13:56:25;;;;;;;;;;;;;;;;;;10267936;28;19925;-62
2021/08/10 14:06:26;;;;;;;;;;;;;;;;;;10285740;28;20020;-62
2021/08/10 14:11:23;;;;;;;;;;;;;;;;;;10283739;28;19981;-62
2021/08/10 14:16:21;;;;;;;;;;;;;;;;;;10290236;28;19917;-62
2021/08/10 14:21:18;;;;;;;;;;;;;;;;;;10271681;28;19921;-62
2021/08/10 14:26:15;;;;;;;;;;;;;;;;;;10272609;28;20778;-62
2021/08/10 14:31:13;;;;;;;;;;;;;;;;;;10279591;28;20007;-61
2021/08/10 14:36:10;;;;;;;;;;;;;;;;;;10272055;28;19940;-61
2021/08/10 14:41:07;;;;;;;;;;;;;;;;;;10271679;28;19932;-61
2021/08/10 14:46:05;;;;;;;;;;;;;;;;;;10265108;28;19917;-61
2021/08/10 14:51:02;;;;;;;;;;;;;;;;;;10268606;28;20004;-60
2021/08/10 14:55:59;;;;;;;;;;;;;;;;;;10289274;28;19928;-60
2021/08/10 15:00:56;;;;;;;;;;;;;;;;;;10270619;28;19929;-61
2021/08/10 15:05:54;;;;;;;;;;;;;;;;;;10275018;28;19925;-61
2021/08/10 15:10:53;;;;;;;;;;;;;;;;;;10272814;28;19940;-61
2021/08/10 15:15:50;;;;;;;;;;;;;;;;;;10275620;28;19924;-61
2021/08/10 15:20:47;;;;;;;;;;;;;;;;;;10277190;28;20376;-61
2021/08/10 15:25:44;;;;;;;;;;;;;;;;;;10278402;28;19917;-61
2021/08/10 15:30:42;;;;;;;;;;;;;;;;;;10266149;28;20702;-62
2021/08/10 15:35:39;;;;;;;;;;;;;;;;;;10277339;28;19917;-62
2021/08/10 15:40:36;;;;;;;;;;;;;;;;;;10277563;28;20000;-62
2021/08/10 15:45:34;;;;;;;;;;;;;;;;;;10280639;28;19971;-62
2021/08/10 15:50:31;;;;;;;;;;;;;;;;;;10269355;28;19931;-64
2021/08/10 15:55:28;;;;;;;;;;;;;;;;;;10283222;28;19925;-64
2021/08/10 16:00:25;;;;;;;;;;;;;;;;;;10273611;28;19921;-64
2021/08/10 16:05:23;;;;;;;;;;;;;;;;;;10252610;28;19929;-65
2021/08/10 16:10:20;;;;;;;;;;;;;;;;;;10234164;28;20048;-62
2021/08/10 16:15:18;;;;;;;;;;;;;;;;;;10250502;28;19921;-64
2021/08/10 16:20:15;;;;;;;;;;;;;;;;;;10271988;28;19917;-64
2021/08/10 16:25:12;;;;;;;;;;;;;;;;;;10279514;28;20019;-62
2021/08/10 16:30:10;;;;;;;;;;;;;;;;;;10273631;28;19990;-62
2021/08/10 16:35:07;;;;;;;;;;;;;;;;;;10266904;28;19963;-62
2021/08/10 16:40:04;;;;;;;;;;;;;;;;;;10277582;28;20012;-62
2021/08/10 16:45:02;;;;;;;;;;;;;;;;;;10256100;28;19929;-62
2021/08/10 16:50:00;;;;;;;;;;;;;;;;;;10284484;28;20118;-62
2021/08/10 16:54:57;;;;;;;;;;;;;;;;;;10268899;28;19921;-61
2021/08/10 16:59:54;;;;;;;;;;;;;;;;;;10276100;28;20429;-61
2021/08/10 17:04:51;;;;;;;;;;;;;;;;;;10283236;28;19932;-63
2021/08/10 17:09:49;;;;;;;;;;;;;;;;;;10265965;28;19961;-61
2021/08/10 17:14:46;;;;;;;;;;;;;;;;;;10268935;28;20011;-63
2021/08/10 17:19:43;;;;;;;;;;;;;;;;;;10287073;28;20321;-63
2021/08/10 17:24:43;;;;;;;;;;;;;;;;;;10259452;28;19925;-59
2021/08/10 17:29:40;;;;;;;;;;;;;;;;;;10272485;28;19984;-62
2021/08/10 17:34:37;;;;;;;;;;;;;;;;;;10270319;28;19928;-63
2021/08/10 17:39:35;;;;;;;;;;;;;;;;;;10277135;28;20012;-62
2021/08/10 17:44:32;;;;;;;;;;;;;;;;;;10275634;28;20013;-63
2021/08/10 17:49:29;;;;;;;;;;;;;;;;;;10275588;28;19932;-64
2021/08/10 17:54:27;;;;;;;;;;;;;;;;;;10280289;28;20454;-64
2021/08/10 17:59:24;;;;;;;;;;;;;;;;;;10290106;28;20314;-63
2021/08/10 18:04:21;;;;;;;;;;;;;;;;;;10270064;28;19929;-64
2021/08/10 18:09:19;;;;;;;;;;;;;;;;;;10280736;28;19913;-63
2021/08/10 18:14:16;;;;;;;;;;;;;;;;;;10275640;28;19921;-62
2021/08/10 18:19:14;;;;;;;;;;;;;;;;;;10270183;28;19913;-62
2021/08/10 18:24:12;;;;;;;;;;;;;;;;;;10266327;28;20043;-63
2021/08/10 18:29:09;;;;;;;;;;;;;;;;;;10276324;28;19920;-62
2021/08/10 18:34:07;;;;;;;;;;;;;;;;;;10271037;28;20134;-62
2021/08/10 18:39:04;;;;;;;;;;;;;;;;;;10272014;28;19910;-62
2021/08/10 18:44:01;;;;;;;;;;;;;;;;;;10265134;28;19917;-62
2021/08/10 18:48:58;;;;;;;;;;;;;;;;;;10268433;28;20274;-63
2021/08/10 18:53:56;;;;;;;;;;;;;;;;;;10271440;28;19960;-64
2021/08/10 18:58:53;;;;;;;;;;;;;;;;;;10272520;28;19931;-65
2021/08/10 19:03:50;;;;;;;;;;;;;;;;;;10265492;28;20367;-64
2021/08/10 19:08:48;;;;;;;;;;;;;;;;;;10267512;28;19918;-65
2021/08/10 19:13:45;;;;;;;;;;;;;;;;;;10282840;28;19963;-65
2021/08/10 19:18:42;;;;;;;;;;;;;;;;;;10280496;28;19965;-63
2021/08/10 19:23:39;;;;;;;;;;;;;;;;;;10274057;28;19921;-63
2021/08/10 19:28:37;;;;;;;;;;;;;;;;;;10280319;28;19925;-62
2021/08/10 19:33:35;;;;;;;;;;;;;;;;;;10278282;28;20386;-63
2021/08/10 19:38:34;;;;;;;;;;;;;;;;;;10267276;28;20402;-63
2021/08/10 19:43:31;;;;;;;;;;;;;;;;;;10276156;28;19925;-62
2021/08/10 19:48:28;;;;;;;;;;;;;;;;;;10277827;28;19932;-62
2021/08/10 19:53:26;;;;;;;;;;;;;;;;;;10279995;28;20320;-63
2021/08/10 19:58:23;;;;;;;;;;;;;;;;;;10277995;28;20396;-62
2021/08/10 20:03:20;;;;;;;;;;;;;;;;;;10288875;28;19926;-61
2021/08/10 20:08:18;;;;;;;;;;;;;;;;;;10271008;28;19932;-62
2021/08/10 20:13:19;;;;;;;;;;;;;;;;;;10287797;28;19975;-63
2021/08/10 20:18:16;;;;;;;;;;;;;;;;;;10275411;28;19917;-64
2021/08/10 20:23:13;;;;;;;;;;;;;;;;;;10271181;28;19929;-62
2021/08/10 20:28:10;;;;;;;;;;;;;;;;;;10279059;28;20004;-63
2021/08/10 20:33:08;;;;;;;;;;;;;;;;;;10270631;28;19918;-62
2021/08/10 20:38:08;;;;;;;;;;;;;;;;;;10281600;28;19963;-63
2021/08/10 20:43:05;;;;;;;;;;;;;;;;;;10280638;28;20329;-64
2021/08/10 20:48:03;;;;;;;;;;;;;;;;;;10284362;28;19917;-64
2021/08/10 20:53:01;;;;;;;;;;;;;;;;;;10271441;28;20000;-65
2021/08/10 20:57:58;;;;;;;;;;;;;;;;;;10283806;28;19922;-65
2021/08/10 21:02:55;;;;;;;;;;;;;;;;;;10284966;28;19969;-64
2021/08/10 21:07:52;;;;;;;;;;;;;;;;;;10282732;28;19922;-64
2021/08/10 21:12:50;;;;;;;;;;;;;;;;;;10270397;28;19917;-63
2021/08/10 21:17:47;;;;;;;;;;;;;;;;;;10270138;28;19925;-65
2021/08/10 21:22:44;;;;;;;;;;;;;;;;;;10263650;28;19944;-64
2021/08/10 21:27:41;;;;;;;;;;;;;;;;;;10265066;28;19926;-64
2021/08/10 21:32:39;;;;;;;;;;;;;;;;;;10288066;28;20202;-64
2021/08/10 21:37:36;;;;;;;;;;;;;;;;;;10274141;28;20387;-65
2021/08/10 21:42:33;;;;;;;;;;;;;;;;;;10275254;28;19925;-62
2021/08/10 21:47:30;;;;;;;;;;;;;;;;;;10272777;28;19917;-62
2021/08/10 21:52:28;;;;;;;;;;;;;;;;;;10263195;28;19933;-63
2021/08/10 21:57:25;;;;;;;;;;;;;;;;;;10278725;28;19921;-62
2021/08/10 22:02:22;;;;;;;;;;;;;;;;;;10263869;28;20390;-63
2021/08/10 22:07:19;;;;;;;;;;;;;;;;;;10262734;28;20373;-63
2021/08/10 22:12:17;;;;;;;;;;;;;;;;;;10270986;28;19974;-63
2021/08/10 22:17:15;;;;;;;;;;;;;;;;;;10269941;28;19928;-63
2021/08/10 22:22:12;;;;;;;;;;;;;;;;;;10271827;28;20002;-64
2021/08/10 22:27:09;;;;;;;;;;;;;;;;;;10266618;28;19917;-62
2021/08/10 22:32:06;;;;;;;;;;;;;;;;;;10282736;28;20374;-62
2021/08/10 22:37:04;;;;;;;;;;;;;;;;;;10268586;28;20236;-62
2021/08/10 22:42:01;;;;;;;;;;;;;;;;;;10271145;28;20281;-62
2021/08/10 22:46:58;;;;;;;;;;;;;;;;;;10277529;28;19917;-62
2021/08/10 22:51:55;;;;;;;;;;;;;;;;;;10268108;28;19921;-62
2021/08/10 22:56:53;;;;;;;;;;;;;;;;;;10281324;28;19921;-63
2021/08/10 23:01:50;;;;;;;;;;;;;;;;;;10278286;28;20338;-63
2021/08/10 23:06:47;;;;;;;;;;;;;;;;;;10282928;28;19921;-62
2021/08/10 23:11:44;;;;;;;;;;;;;;;;;;10268275;28;19917;-63
2021/08/10 23:16:42;;;;;;;;;;;;;;;;;;10268101;28;20015;-63
2021/08/10 23:21:39;;;;;;;;;;;;;;;;;;10273608;28;19995;-65
2021/08/10 23:26:36;;;;;;;;;;;;;;;;;;10283167;28;19917;-64
2021/08/10 23:31:37;;;;;;;;;;;;;;;;;;10280284;28;19932;-63
2021/08/10 23:36:34;;;;;;;;;;;;;;;;;;10280577;28;19921;-63
2021/08/10 23:41:31;;;;;;;;;;;;;;;;;;10281228;28;19951;-62
2021/08/10 23:46:28;;;;;;;;;;;;;;;;;;10294343;28;19925;-62
2021/08/10 23:51:26;;;;;;;;;;;;;;;;;;10274964;28;19918;-63
2021/08/10 23:56:23;;;;;;;;;;;;;;;;;;10286278;28;19967;-63
